Tiempo atmosférico en la estación meteorológica de Águilas, Murcia (26 m.)

Fecha
DESCASC
Temp. máxima en grados centígrados (hora)
DESCASC
Temp. mínima en grados centígrados (hora)
DESCASC
Temp. media en grados centígrados
DESCASC
Racha de viento máxima en m/sg (hora)
DESCASC
Velocidad máxima media en intervalos de 10 minutos(hora)
DESCASC
Precipitaciones diarias en mm
DESCASC
Precipitaciones de 00:00 a 06:00 en mm
DESCASC
Precipitaciones de 06:00 a 12:00 en mm
DESCASC
Precipitaciones de 12:00 a 18:00 en mm
DESCASC
Precipitaciones de 18:00 a 24:00 en mm
DESCASC
17-09-2017 26.4 (14:00) 19.5 (08:00) 22.9 6.94 (15:20) 3.89 (15:20) 0 0 0 0 0
16-09-2017 25.3 (14:30) 20.1 (07:20) 22.7 11.94 (01:20) 6.67 (01:40) 0 0 0 0 0
15-09-2017 28.3 (11:10) 22.5 (23:59) 25.4 11.67 (23:50) 7.22 (23:50) 0 0 0 0 0
14-09-2017 29 (17:00) 19.6 (00:00) 24.3 6.11 (20:20) 3.89 (20:10) 0 0 0 0 0
13-09-2017 30 (13:30) 20.1 (00:00) 25.1 6.67 (14:40) 4.17 (15:00) 0 0 0 0 0
12-09-2017 30.7 (12:20) 20.9 (00:00) 25.8 10.28 (15:00) 6.67 (14:30) 0 0 0 0 0
11-09-2017 28.8 (17:20) 18.6 (00:00) 23.7 6.39 (13:20) 3.89 (13:20) -- 0 0 -- 0
10-09-2017 28.8 (13:20) 21.4 (00:00) 25.1 12.78 (06:10) 6.39 (06:10) 0 0 0 0 0
09-09-2017 31.7 (20:10) 21.2 (00:00) 26.5 12.78 (20:40) 6.67 (20:20) 0 0 0 0 0
08-09-2017 27.9 (15:10) 22.3 (00:00) 25.1 6.94 (14:30) 3.61 (14:40) 0 0 0 0 0
07-09-2017 28.5 (11:20) 21.6 (00:00) 25.1 7.78 (15:40) 4.72 (15:50) 0 0 0 0 0
06-09-2017 28.5 (13:10) 20.9 (00:00) 24.7 6.39 (17:50) 3.89 (18:00) 0 0 0 0 0
05-09-2017 31 (12:40) 22.5 (00:00) 26.8 7.5 (15:30) 4.17 (16:20) 0 0 0 0 0
04-09-2017 29.1 (17:00) 22 (00:00) 25.6 9.17 (22:40) 5.28 (22:40) 0 0 0 0 0
03-09-2017 28.1 (12:10) 22.1 (00:00) 25.1 6.11 (15:40) 3.33 (13:10) 0 0 0 0 0
02-09-2017 28.5 (13:20) 23.8 (00:00) 26.1 10.28 (14:40) 6.11 (14:20) 0 0 0 0 0
01-09-2017 30.1 (13:40) 22.4 (00:00) 26.3 11.11 (18:30) 6.67 (17:00) 0 0 0 0 0
31-08-2017 29.2 (15:30) 20.7 (00:00) 25 7.78 (20:20) 4.72 (19:40) 0 0 0 0 0
30-08-2017 24.1 (19:00) 19.5 (00:00) 21.8 7.5 (11:40) 3.89 (18:30) 17.4 0.2 6.6 10.6 0
29-08-2017 28.3 (16:40) 20.1 (00:00) 24.2 6.39 (14:00) 3.61 (14:00) 0.4 0 0 0.2 0.2
28-08-2017 28.7 (17:00) 24.7 (00:00) 26.7 8.89 (10:30) 4.44 (10:30) 0 0 0 0 0
27-08-2017 30.5 (15:30) 24.5 (00:00) 27.5 6.67 (12:00) 3.89 (12:00) 0 0 0 0 0
26-08-2017 30.6 (15:40) 23.2 (00:00) 26.9 8.89 (14:20) 5.28 (13:50) 0 0 0 0 0
25-08-2017 29.4 (16:20) 23.1 (00:00) 26.3 5.83 (13:50) 3.61 (15:00) 0 0 0 0 0
24-08-2017 29.1 (13:30) 21.1 (00:00) 25.1 8.61 (15:00) 4.17 (15:40) 0 0 0 0 0
23-08-2017 29 (15:20) 21.7 (00:00) 25.4 7.22 (14:00) 3.89 (18:30) 0 0 0 0 0
22-08-2017 29.4 (12:20) 21.8 (00:00) 25.6 6.94 (13:40) 3.61 (13:40) 0 0 0 0 0

Gráficas

Temp. máximas Temp. mínimas Temp. medias Precipitaciones Rachas de viento máximas Velocidades máximas media en intervalos de 10 minutos

Datos horarios

Fecha y hora oficial Temperatura (ºC) Velocidad del viento (km/h) Dirección del viento Racha (km/h) Dirección de racha Precipitación (mm) Presión (hPa) Tendencia (hPa) Humedad (%)
2017-09-20 23:00:00 22.2 3 Nordeste 8 Nordeste 0 1014.8 0.4 68
2017-09-20 22:00:00 22.6 5 Nordeste 8 Este 0 1014.6 0.3 67
2017-09-20 21:00:00 23.1 5 Este 10 Este 0 1014.3 -0.1 66
2017-09-20 20:00:00 23.9 6 Sudeste 13 Sudeste 0 1014.4 -0.4 63
2017-09-20 19:00:00 24.9 6 Sudeste 17 Sudeste 0 1014.3 -1.1 60
2017-09-20 18:00:00 25.3 9 Sur 22 Sudeste 0 1014.4 -1.6 57
2017-09-20 17:00:00 25.7 10 Sur 21 Sudeste 0 1014.8 -1.7 58
2017-09-20 16:00:00 25.8 10 Sur 22 Sudeste 0 1015.4 -1.5 56
2017-09-20 15:00:00 25.9 9 Sur 22 Sudeste 0 1016 -1.2 55
2017-09-20 14:00:00 25.8 12 Sur 22 Sudeste 0 1016.5 -0.7 55
2017-09-20 13:00:00 25.8 14 Sudeste 26 Sudeste 0 1016.9 0 60
2017-09-20 12:00:00 26 15 Sudeste 24 Este 0 1017.2 0.5 60
2017-09-20 11:00:00 25.7 9 Sudeste 17 Sudeste 0 1017.2 0.6 59
2017-09-20 10:00:00 25 7 Este 14 Este 0 1016.9 0.7 64
2017-09-20 09:00:00 21.9 5 Este 8 Este 0 1016.7 0.6 80
2017-09-20 08:00:00 19.7 2 Norte 10 Nordeste 0 1016.6 0.6 80
2017-09-20 07:00:00 19.2 0 Calma 7 Nordeste 0 1016.2 0.1 77
2017-09-20 06:00:00 19.2 2 Nordeste 8 Nordeste 0 1016.1 0 69
2017-09-20 05:00:00 19.7 2 Nordeste 9 Nordeste 0 1016 -0.5 62
2017-09-20 04:00:00 19.7 3 Nordeste 7 Nordeste 0 1016.1 -0.7 70
2017-09-20 03:00:00 19.7 0 Calma 6 Norte 0 1016.1 -0.8 73
2017-09-20 02:00:00 20.2 4 Norte 6 Norte 0 1016.5 -0.5 74
2017-09-20 01:00:00 21.1 2 Norte 8 Norte 0 1016.8 -0.1 75
2017-09-20 00:00:00 22.1 4 Norte 9 Norte 0 1016.9 0.4 75
2017-09-19 23:00:00 22.5 4 Noroeste 6 Norte 0 1017 0.7 73
2017-09-19 22:00:00 22.9 3 Noroeste 9 Oeste 0 1016.9 0.8 72
2017-09-19 21:00:00 23.5 5 Oeste 12 Sudoeste 0 1016.5 0.5 69
2017-09-19 20:00:00 24.3 6 Sudoeste 13 Sudoeste 0 1016.3 0.2 65
2017-09-19 19:00:00 25.1 8 Sudoeste 18 Sur 0 1016.1 0 61
2017-09-19 18:00:00 25.5 9 Sudeste 18 Sudeste 0 1016 -0.3 59
2017-09-19 17:00:00 26.1 10 Sur 24 Sudeste 0 1016.1 -0.7 56
2017-09-19 16:00:00 26.5 13 Sudeste 25 Sur 0 1016.1 -1.2 54
2017-09-19 15:00:00 26.8 9 Sur 23 Sur 0 1016.3 -2.1 50
2017-09-19 14:00:00 26.6 12 Sur 25 Sur 0 1016.8 0.2 53
2017-09-19 13:00:00 26.6 12 Sudeste 24 Sudeste 0 1017.3 0.1 49
2017-09-19 12:00:00 26.4 14 Sudeste 25 Sudeste 0 1018.4 1.7 43
2017-09-19 11:00:00 26.5 3 Sudeste 9 Este 0 1016.6 0.3 39
2017-09-19 10:00:00 24.6 2 Oeste 6 Noroeste 0 1017.2 1.4 50
2017-09-19 09:00:00 21.5 5 Norte 10 Norte 0 1016.7 1.3 54
2017-09-19 08:00:00 20.1 8 Norte 14 Nordeste 0 1016.3 1.3 55
2017-09-19 07:00:00 21.3 6 Nordeste 12 Nordeste 0 1015.8 0.7 58
2017-09-19 06:00:00 20.2 4 Nordeste 10 Nordeste 0 1015.4 0.1 43
2017-09-19 05:00:00 20.6 4 Nordeste 9 Norte 0 1015 -0.1 41
2017-09-19 04:00:00 21.2 4 Nordeste 11 Norte 0 1015.1 0.2 39
2017-09-19 03:00:00 22.2 4 Nordeste 13 Norte 0 1015.3 0.6 35
2017-09-19 02:00:00 22.9 5 Norte 11 Nordeste 0 1015.1 0.7 37
2017-09-19 01:00:00 21.7 3 Noroeste 8 Sudeste 0 1014.9 1.3 61
2017-09-19 00:00:00 22.5 5 Nordeste 14 Este 0 1014.7 1.9 63
2017-09-18 23:00:00 22.6 4 Norte 9 Sudeste 0 1014.4 2.2 67
2017-09-18 22:00:00 23.3 4 Nordeste 7 Nordeste 0 1013.6 1.7 65
2017-09-18 21:00:00 23.7 5 Este 15 Sudeste 0 1012.8 1.2 65
2017-09-18 20:00:00 24.7 9 Sudeste 20 Este 0 1012.2 0.6 61
2017-09-18 19:00:00 26.4 9 Sudeste 16 Este 0 1011.9 -0.2 51
2017-09-18 18:00:00 27.1 5 Sur 18 Sudoeste 0 1011.6 -1 48
2017-09-18 17:00:00 26.6 9 Sudoeste 20 Sudoeste 0 1011.6 -1.5 54
2017-09-18 16:00:00 26.4 9 Sur 22 Sudoeste 0 1012.1 -1.2 53
2017-09-18 15:00:00 26.4 13 Sur 21 Sur 0 1012.6 -1 55
2017-09-18 14:00:00 26 13 Sur 22 Sur 0 1013.1 -0.6 50
2017-09-18 13:00:00 25.9 14 Sur 23 Sur 0 1013.3 -0.3 47
2017-09-18 12:00:00 25.9 8 Sur 21 Sur 0 1013.6 0.5 42
2017-09-18 11:00:00 25.4 6 Sur 10 Sur 0 1013.7 0.7 36
2017-09-18 10:00:00 23.8 3 Sur 8 Sudoeste 0 1013.6 1.1 57
2017-09-18 09:00:00 21.5 5 Nordeste 10 Nordeste 0 1013.1 0.6 58
2017-09-18 08:00:00 18.6 4 Norte 8 Nordeste 0 1013 0.6 72
2017-09-18 07:00:00 19.4 3 Nordeste 9 Nordeste 0 1012.5 -0.1 70
2017-09-18 06:00:00 18.9 3 Norte 7 Nordeste 0 1012.5 -0.5 68
2017-09-18 05:00:00 19.6 5 Nordeste 9 Noroeste 0 1012.4 -0.7 61
2017-09-18 04:00:00 18.8 4 Noroeste 10 Norte 0 1012.6 -1 65
2017-09-18 03:00:00 20.4 5 Norte 11 Norte 0 1013 -0.9 66
2017-09-18 02:00:00 21.3 3 Nordeste 10 Nordeste 0 1013.1 -0.9 68
2017-09-18 01:00:00 21.6 6 Nordeste 10 Nordeste 0 1013.6 -0.2 69
2017-09-18 00:00:00 22 5 Nordeste 8 Nordeste 0 1013.9 0.4 67
2017-09-17 23:00:00 22.6 3 Norte 9 Sudoeste 0 1014 0.9 65
2017-09-17 22:00:00 23.1 4 Sur 11 Sudoeste 0 1013.8 0.9 64
2017-09-17 21:00:00 23.6 4 Sudoeste 17 Sudoeste 0 1013.5 0.4 60
2017-09-17 20:00:00 24.1 6 Sur 14 Sur 0 1013.1 0.2 60
2017-09-17 19:00:00 24.8 9 Sudeste 20 Sur 0 1012.9 -0.4 61
2017-09-17 18:00:00 25.3 10 Sur 23 Sudoeste 0 1013.1 -0.8 58
2017-09-17 17:00:00 26 13 Sur 24 Sudoeste 0 1012.9 -1.7 55
2017-09-17 16:00:00 25.4 14 Sudeste 25 Sudeste 0 1013.3 -1.7 58
2017-09-17 15:00:00 25.9 13 Sudeste 23 Sur 0 1013.9 -1.4 53
2017-09-17 14:00:00 26.1 11 Sudeste 19 Sudeste 0 1014.6 -0.8 47
2017-09-17 13:00:00 25.1 11 Sur 20 Sur 0 1015 0 53
2017-09-17 12:00:00 25.2 5 Sur 14 Sudeste 0 1015.3 1.1 53
2017-09-17 11:00:00 24.4 3 Norte 11 Noroeste 0 1015.4 1.5 54
2017-09-17 10:00:00 22.7 6 Noroeste 13 Noroeste 0 1015 1.6 62
2017-09-17 09:00:00 21.5 4 Noroeste 10 Norte 0 1014.2 1.1 68
2017-09-17 08:00:00 19.5 5 Noroeste 10 Nordeste 0 1013.9 1.2 74
2017-09-17 07:00:00 19.7 0 Calma 9 Norte 0 1013.4 0.6 73
2017-09-17 06:00:00 19.9 0 Calma 7 Norte 0 1013.1 0.3 73
2017-09-17 05:00:00 20.3 4 Norte 8 Norte 0 1012.7 -0.5 72
2017-09-17 04:00:00 20 0 Calma 6 Nordeste 0 1012.8 -0.3 73
2017-09-17 03:00:00 20.9 3 Norte 8 Nordeste 0 1012.8 -0.2 70
2017-09-17 02:00:00 21.2 4 Nordeste 9 Nordeste 0 1013.2 0.5 70
2017-09-17 01:00:00 21 3 Norte 8 Norte 0 1013.1 0.9 70
2017-09-17 00:00:00 21.6 4 Nordeste 9 Nordeste 0 1013 1.8 69
2017-09-16 23:00:00 22 8 Este 18 Este 0 1012.7 2.3 68
2017-09-16 22:00:00 22.5 10 Este 21 Este 0 1012.2 2.5 68
2017-09-16 21:00:00 22.4 13 Este 24 Este 0 1011.2 1.8 67
2017-09-16 20:00:00 22.7 14 Este 27 Sudeste 0 1010.4 1.4 66
2017-09-16 19:00:00 22.8 16 Sudeste 28 Sudeste 0 1009.7 0.5 65
2017-09-16 18:00:00 23.5 17 Sudeste 32 Sudeste 0 1009.4 0.3 63
2017-09-16 17:00:00 24.4 17 Sudeste 32 Sur 0 1009 -0.4 58
2017-09-16 16:00:00 24.5 16 Sudeste 34 Este 0 1009.2 -0.6 56
2017-09-16 15:00:00 24.5 18 Sudeste 37 Sudeste 0 1009.1 -0.8 52
2017-09-16 14:00:00 24.9 19 Sudeste 33 Sur 0 1009.4 -0.6 49
2017-09-16 13:00:00 24.8 15 Sudeste 27 Sudeste 0 1009.8 0.2 50
2017-09-16 12:00:00 24.4 14 Este 26 Este 0 1009.9 0.9 50
2017-09-16 11:00:00 23.5 16 Este 27 Sudeste 0 1010 1.5 50
2017-09-16 10:00:00 22.9 13 Este 24 Este 0 1009.6 1.8 52
2017-09-16 09:00:00 21.8 8 Este 18 Este 0 1009 1 57
2017-09-16 08:00:00 20.4 7 Este 14 Este 0 1008.5 0.7 62
2017-09-16 07:00:00 20.4 8 Este 12 Este 0 1007.8 -0.2 64
2017-09-16 06:00:00 20.9 6 Este 15 Nordeste 0 1008 -0.3 63
2017-09-16 05:00:00 20.6 6 Este 21 Este 0 1007.8 -0.3 65
2017-09-16 04:00:00 20.7 10 Este 25 Este 0 1008 0 64
2017-09-16 03:00:00 21.1 14 Este 38 Este 0 1008.3 0.4 66
2017-09-16 02:00:00 21.5 18 Este 43 Este 0 1008.1 0.8 66
2017-09-16 01:00:00 22.2 23 Este 37 Este 0 1008 1 66
2017-09-16 00:00:00 22.5 22 Este 42 Este 0 1007.9 1.9 69
2017-09-15 23:00:00 23.5 18 Este 37 Este 0 1007.3 2.1 67
2017-09-15 22:00:00 24 22 Este 36 Sudeste 0 1007 2.2 70
2017-09-15 21:00:00 24.1 21 Este 37 Este 0 1006 1.2 73
2017-09-15 20:00:00 24.9 19 Este 31 Este 0 1005.2 0 69
2017-09-15 19:00:00 25.9 18 Este 28 Este 0 1004.8 -0.9 65
2017-09-15 18:00:00 26.1 14 Sudeste 24 Sudeste 0 1004.8 -1.3 64
2017-09-15 17:00:00 26.9 10 Sudeste 22 Sur 0 1005.2 -1.3 62
2017-09-15 16:00:00 27.3 12 Sur 26 Sur 0 1005.7 -1.4 62
2017-09-15 15:00:00 27.1 12 Sur 22 Sudeste 0 1006.1 -0.9 62
2017-09-15 14:00:00 27.3 12 Sur 23 Sur 0 1006.5 -0.7 60
2017-09-15 13:00:00 27.4 10 Sur 22 Sudeste 0 1007.1 -0.4 57
2017-09-15 12:00:00 27.5 14 Sudeste 25 Sudeste 0 1007 -0.2 55
2017-09-15 11:00:00 27.9 9 Sudeste 17 Sudeste 0 1007.2 0.3 54
2017-09-15 10:00:00 26.4 6 Este 13 Este 0 1007.5 0.7 58
2017-09-15 09:00:00 24.5 2 Norte 7 Nordeste 0 1007.2 0.2 60
2017-09-15 08:00:00 22.9 4 Norte 8 Oeste 0 1006.9 0.2 66
2017-09-15 07:00:00 23.4 4 Este 12 Noroeste 0 1006.8 -0.5 64
2017-09-15 06:00:00 23.6 5 Noroeste 10 Noroeste 0 1007 -0.8 68
2017-09-15 05:00:00 24.1 4 Oeste 11 Este 0 1006.7 -1.4 66
2017-09-15 04:00:00 24.2 5 Nordeste 9 Nordeste 0 1007.3 -1.2 69
2017-09-15 03:00:00 24.4 3 Sudoeste 8 Sudeste 0 1007.8 -1.4 67
2017-09-15 02:00:00 24.1 3 Este 8 Sudeste 0 1008.1 -1.2 69
2017-09-15 01:00:00 24.2 5 Norte 11 Norte 0 1008.5 -1.2 70
2017-09-15 00:00:00 23.9 4 Este 9 Sudeste 0 1009.2 -0.3 71
2017-09-14 23:00:00 24 6 Nordeste 12 Este 0 1009.3 0 71
2017-09-14 22:00:00 24.3 7 Este 14 Este 0 1009.7 1.3 68
2017-09-14 21:00:00 25 8 Este 22 Este 0 1009.5 -0.2 64
2017-09-14 20:00:00 25.8 13 Este 21 Este 0 1009.3 -1 59
2017-09-14 19:00:00 27.2 5 Sudeste 18 Sudeste 0 1008.4 -2.3 53
2017-09-14 18:00:00 28.2 9 Sudeste 18 Sudeste 0 1009.7 -2.9 50
2017-09-14 17:00:00 28.9 7 Sur 18 Sur 0 1010.3 -2.6 47
2017-09-14 16:00:00 28.3 8 Sudeste 20 Sudeste 0 1010.7 -3.3 53
2017-09-14 15:00:00 27.7 8 Sudeste 19 Sur 0 1012.6 -1 54
2017-09-14 14:00:00 28.1 7 Sur 19 Sur 0 1012.9 -1.4 43
2017-09-14 13:00:00 26.8 12 Sur 21 Sudoeste 0 1014 -0.5 55
2017-09-14 12:00:00 26.7 10 Sur 21 Sur 0 1013.6 -0.7 46
2017-09-14 11:00:00 26.5 9 Sur 14 Sur 0 1014.3 0 42
2017-09-14 10:00:00 26.1 3 Sudoeste 13 Sudoeste 0 1014.5 0.6 45
2017-09-14 09:00:00 23.8 5 Nordeste 9 Nordeste 0 1014.3 0.2 41
2017-09-14 08:00:00 20.5 4 Nordeste 9 Norte 0 1014.3 0 46
2017-09-14 07:00:00 20.2 2 Nordeste 9 Norte 0 1013.9 -1 48
2017-09-14 06:00:00 20.2 3 Norte 7 Norte 0 1014.1 -1.3 47
2017-09-14 05:00:00 20 0 Calma 5 Norte 0 1014.3 -1.6 53
2017-09-14 04:00:00 20.4 3 Norte 7 Noroeste 0 1014.9 -1.5 54
2017-09-14 03:00:00 20.6 0 Calma 7 Noroeste 0 1015.4 -1.4 55
2017-09-14 02:00:00 21.3 0 Calma 7 Norte 0 1015.9 -1.3 51
2017-09-14 01:00:00 21.8 3 Norte 9 Nordeste 0 1016.4 -0.7 47
2017-09-14 00:00:00 22.4 5 Norte 8 Norte 0 1016.8 0 45
2017-09-13 23:00:00 23.1 0 Calma 8 Norte 0 1017.2 0.4 51
2017-09-13 22:00:00 23.8 3 Este 9 Este 0 1017.1 0.4 68
2017-09-13 21:00:00 24.5 6 Este 14 Este 0 1016.8 -0.4 66
2017-09-13 20:00:00 26.1 7 Este 18 Sudeste 0 1016.8 -0.7 50
2017-09-13 19:00:00 27.8 7 Sudeste 22 Sudeste 0 1016.7 -0.5 44
2017-09-13 18:00:00 28.6 10 Este 22 Este 0 1017.2 -0.8 34
2017-09-13 17:00:00 29.2 10 Este 23 Sudeste 0 1017.5 -1.3 35
2017-09-13 16:00:00 29.9 12 Sudeste 24 Este 0 1017.2 -2.1 35
2017-09-13 15:00:00 29.1 15 Sudeste 24 Sudeste 0 1018 -1.6 40
2017-09-13 14:00:00 29 13 Sudeste 22 Sudeste 0 1018.8 -0.6 35
2017-09-13 13:00:00 29.9 12 Sudeste 21 Sudeste 0 1019.3 0.1 26
2017-09-13 12:00:00 28.7 11 Sudeste 22 Este 0 1019.6 1 34
2017-09-13 11:00:00 28.1 9 Este 18 Sudeste 0 1019.4 1.1 33
2017-09-13 10:00:00 26.7 3 Sur 9 Sudeste 0 1019.2 1.3 37
2017-09-13 09:00:00 22.8 3 Norte 8 Norte 0 1018.6 1.1 51
2017-09-13 08:00:00 20.2 3 Norte 9 Norte 0 1018.3 1 58
2017-09-13 07:00:00 20.2 0 Calma 12 Norte 0 1017.9 0.6 58
2017-09-13 06:00:00 20.3 6 Norte 9 Norte 0 1017.5 0 59
2017-09-13 05:00:00 20.8 3 Norte 5 Norte 0 1017.3 -0.4 58
2017-09-13 04:00:00 21.2 0 Calma 6 Norte 0 1017.3 -0.3 58
2017-09-13 03:00:00 21.7 3 Norte 6 Norte 0 1017.5 0.2 57
2017-09-13 02:00:00 22.3 2 Norte 6 Nordeste 0 1017.7 0.9 56
2017-09-13 01:00:00 23.2 3 Norte 6 Norte 0 1017.6 1.5 56
2017-09-13 00:00:00 23.9 4 Norte 9 Nordeste 0 1017.3 2.2 57
2017-09-12 23:00:00 24 3 Nordeste 8 Nordeste 0 1016.8 2.6 57
2017-09-12 22:00:00 24.4 3 Norte 16 Este 0 1016.1 2.3 56
2017-09-12 21:00:00 24.4 8 Este 19 Este 0 1015.1 1.6 56
2017-09-12 20:00:00 25 10 Este 24 Este 0 1014.2 0.9 58
2017-09-12 19:00:00 25.8 12 Este 28 Sudeste 0 1013.8 0.7 57
2017-09-12 18:00:00 27 12 Sudeste 28 Este 0 1013.5 1.1 56
2017-09-12 17:00:00 27.4 17 Sudeste 35 Sudeste 0 1013.3 1.3 57
2017-09-12 16:00:00 27.6 19 Sudeste 36 Sudeste 0 1013.1 1.3 60
2017-09-12 15:00:00 27.1 23 Sudeste 37 Este 0 1012.4 1.3 60
2017-09-12 14:00:00 28.3 20 Sudeste 37 Sudeste 0 1012 1.2 60
2017-09-12 13:00:00 27.7 22 Sudeste 36 Sudeste 0 1011.8 1.9 65
2017-09-12 12:00:00 30.3 8 Sur 18 Sudeste 0 1011.1 1.4 27
2017-09-12 11:00:00 29.8 7 Sur 12 Sur 0 1010.8 1.9 31
2017-09-12 10:00:00 28.3 5 Sudeste 10 Sudeste 0 1009.9 1.8 49
2017-09-12 09:00:00 24.4 2 Nordeste 10 Nordeste 0 1009.7 1.7 48
2017-09-12 08:00:00 21.2 3 Nordeste 10 Norte 0 1008.9 1 57
2017-09-12 07:00:00 21.2 3 Norte 8 Nordeste 0 1008.1 0.1 56
2017-09-12 06:00:00 21.4 6 Nordeste 11 Nordeste 0 1008 -0.2 56
2017-09-12 05:00:00 21.2 3 Este 9 Nordeste 0 1007.9 -0.3 57
2017-09-12 04:00:00 21.4 0 Calma 10 Nordeste 0 1008 -0.4 60
2017-09-12 03:00:00 22 7 Norte 10 Norte 0 1008.2 -0.3 56
2017-09-12 02:00:00 22.1 2 Nordeste 8 Norte 0 1008.2 -0.4 49
2017-09-12 01:00:00 22.2 0 Calma 8 Norte 0 1008.4 0.2 49
2017-09-12 00:00:00 23.2 4 Norte 8 Norte 0 1008.5 0.6 50
2017-09-11 23:00:00 24.1 2 Nordeste 6 Nordeste 0 1008.6 0.4 50
2017-09-11 22:00:00 24.4 4 Norte 9 Este 0 1008.2 0.1 54
2017-09-11 21:00:00 25 5 Este 9 Este 0 1007.9 -0.6 55
2017-09-11 20:00:00 26 4 Sudeste 11 Sudoeste 0 1008.2 0.2 50
2017-09-11 19:00:00 27 4 Sur 14 Sur 0 1008.1 -2 43
2017-09-11 18:00:00 28.1 6 Sudoeste 19 Oeste 0 1008.5 -2.3 39
2017-09-11 17:00:00 28 8 Sudoeste 19 Sur 0 1008 -2.8 38
2017-09-11 16:00:00 27.5 7 Sur 21 Sur 0 1010.1 -0.6 48
2017-09-11 15:00:00 28.3 6 Sur 16 Sur 0 1010.8 -0.1 41
2017-09-11 14:00:00 27.3 7 Sur 23 Sudoeste 0 1010.8 0 48
2017-09-11 13:00:00 28.4 12 Sur -- -- -- 1010.7 0.1 30
2017-09-11 12:00:00 28.5 5 Sur 12 Sur 0 1010.9 0.4 26
2017-09-11 11:00:00 26.9 8 Sur 13 Sur 0 1010.8 0.5 30
2017-09-11 10:00:00 26.6 5 Oeste 11 Oeste 0 1010.6 0.8 26
2017-09-11 09:00:00 22.3 2 Nordeste 15 Noroeste 0 1010.5 0.6 43
2017-09-11 08:00:00 19 4 Noroeste 11 Norte 0 1010.3 0.4 56
2017-09-11 07:00:00 19.1 7 Norte 12 Nordeste 0 1009.8 -0.5 66
2017-09-11 06:00:00 19.6 2 Norte 9 Norte 0 1009.9 -0.5 69
2017-09-11 05:00:00 20.1 5 Norte 10 Nordeste 0 1009.9 -0.8 69
2017-09-11 04:00:00 20 5 Oeste 10 Sudoeste 0 1010.3 -0.7 65
2017-09-11 03:00:00 20.4 3 Nordeste 9 Norte 0 1010.4 -0.9 59
2017-09-11 02:00:00 20.9 6 Norte 11 Sudeste 0 1010.7 -0.6 63
2017-09-11 01:00:00 20.7 0 Calma 8 Noroeste 0 1011 0.2 65
2017-09-11 00:00:00 21.6 2 Norte 9 Nordeste 0 1011.3 1.4 61
2017-09-10 23:00:00 22.7 4 Nordeste 14 Sudoeste 0 1011.3 1.8 56
2017-09-10 22:00:00 23.1 6 Sudoeste 23 Sudoeste 0 1010.8 1.6 52
2017-09-10 21:00:00 23.6 7 Sudoeste 25 Sudoeste 0 1009.9 0.9 53
2017-09-10 20:00:00 24.2 10 Sudoeste 25 Sur 0 1009.5 0.8 53
2017-09-10 19:00:00 25.1 11 Sur 26 Sudoeste 0 1009.2 0.1 45
2017-09-10 18:00:00 25.9 13 Sudoeste 30 Sur 0 1009 0.6 37
2017-09-10 17:00:00 26.7 14 Sudoeste 30 Sudoeste 0 1008.7 0.2 31
2017-09-10 16:00:00 26.7 15 Sur 32 Sur 0 1009.1 0.3 32
2017-09-10 15:00:00 28.3 17 Sudeste 30 Sudeste 0 1008.4 -0.8 22
2017-09-10 14:00:00 27.7 14 Sudeste 27 Sudeste 0 1008.5 -0.5 22
2017-09-10 13:00:00 28 9 Norte 31 Noroeste 0 1008.8 0.1 17
2017-09-10 12:00:00 26.3 9 Nordeste 37 Norte 0 1009.2 1.2 20
2017-09-10 11:00:00 25.1 14 Norte 32 Norte 0 1009 2.1 22
2017-09-10 10:00:00 23.8 17 Norte 34 Norte 0 1008.7 3.1 25
2017-09-10 09:00:00 23.5 13 Norte 32 Norte 0 1008 3.8 25
2017-09-10 08:00:00 22.7 14 Norte 40 Norte 0 1006.9 2.7 26
2017-09-10 07:00:00 23.8 18 Norte 46 Nordeste 0 1005.6 1.8 21
2017-09-10 06:00:00 24.3 19 Norte 37 Norte 0 1004.2 0.7 19
2017-09-10 05:00:00 22.9 3 Norte 18 Norte 0 1004.2 1 30
2017-09-10 04:00:00 23.2 5 Norte 13 Norte 0 1003.8 1.2 73
2017-09-10 03:00:00 24.3 3 Nordeste 13 Noroeste 0 1003.5 1.2 70
2017-09-10 02:00:00 24.6 6 Este 19 Este 0 1003.2 0.6 68
2017-09-10 01:00:00 25.6 12 Este 22 Este 0 1002.6 2 62
2017-09-10 00:00:00 27 6 Noroeste 17 Norte 0 1002.3 2.7 29
2017-09-09 23:00:00 28.6 12 Norte 34 Noroeste 0 1002.6 4.1 24
2017-09-09 22:00:00 29.8 15 Noroeste 28 Norte 0 1000.6 0.8 22
2017-09-09 21:00:00 30.8 18 Noroeste 46 Oeste 0 999.6 -0.7 20
2017-09-09 20:00:00 31.6 23 Noroeste 44 Oeste 0 998.5 -2.1 17
2017-09-09 19:00:00 28.2 5 Sudoeste 13 Sur 0 999.8 -1.1 59
2017-09-09 18:00:00 28.2 3 Sudoeste 12 Sudoeste 0 1000.3 -1.5 56
2017-09-09 17:00:00 28.1 3 Sudoeste 9 Sur 0 1000.6 -1.6 58
2017-09-09 16:00:00 27.9 6 Sudoeste 21 Sur 0 1000.9 -2.3 61
2017-09-09 15:00:00 28 12 Sudoeste 24 Sudoeste 0 1001.8 -1.8 61
2017-09-09 14:00:00 28.2 13 Sudoeste 31 Sudoeste 0 1002.2 -1.6 61
2017-09-09 13:00:00 28.8 11 Sudoeste 24 Sudoeste 0 1003.2 -0.7 50
2017-09-09 12:00:00 28.1 9 Sudoeste 19 Sudoeste 0 1003.6 -0.2 47
2017-09-09 11:00:00 25.6 4 Sur 13 Sur 0 1003.8 -0.2 61
2017-09-09 10:00:00 25 4 Oeste 9 Noroeste 0 1003.9 -0.3 72
2017-09-09 09:00:00 22.3 5 Noroeste 10 Noroeste 0 1003.8 -0.7 71
2017-09-09 08:00:00 21.9 4 Norte 8 Noroeste 0 1004 -0.9 75
2017-09-09 07:00:00 21.3 3 Noroeste 9 Norte 0 1004.2 -1.2 76
2017-09-09 06:00:00 22.1 3 Noroeste 6 Noroeste 0 1004.5 -1.6 79
2017-09-09 05:00:00 22.9 4 Noroeste 7 Noroeste 0 1004.9 -2.2 78
2017-09-09 04:00:00 24.1 4 Noroeste 9 Sur 0 1005.4 -2.3 77
2017-09-09 03:00:00 24.8 5 Sur 13 Sur 0 1006.1 -1.9 75
2017-09-09 02:00:00 25.1 3 Sudoeste 10 Sur 0 1007.1 -1 74
2017-09-09 01:00:00 25.2 5 Oeste 14 Sur 0 1007.7 -0.5 72
2017-09-09 00:00:00 25.2 6 Sudoeste 14 Sur 0 1008 0.2 71
2017-09-08 23:00:00 24.6 4 Oeste 12 Oeste 0 1008.1 0.2 72
2017-09-08 22:00:00 25.4 7 Oeste 11 Oeste 0 1008.2 -0.1 70
2017-09-08 21:00:00 25.3 6 Sur 10 Sur 0 1007.8 -1 68
2017-09-08 20:00:00 25.6 5 Sur 18 Sur 0 1007.9 -1.5 68
2017-09-08 19:00:00 26.1 8 Sur 19 Sur 0 1008.3 -1.7 65
2017-09-08 18:00:00 26.8 9 Sur 20 Sur 0 1008.8 -1.9 62
2017-09-08 17:00:00 27.5 10 Sur 22 Sur 0 1009.4 -1.8 60
2017-09-08 16:00:00 27.6 12 Sur 23 Sudeste 0 1010 -0.6 59
2017-09-08 15:00:00 27.5 10 Sudeste 25 Sur 0 1010.7 -1.2 63
2017-09-08 14:00:00 27.4 10 Sur 22 Sur 0 1011.2 -0.8 63
2017-09-08 13:00:00 27.2 10 Sudeste 18 Sudeste 0 1010.6 -1.5 62
2017-09-08 12:00:00 27.1 8 Sur 18 Sur 0 1011.9 0.2 60
2017-09-08 11:00:00 26.7 6 Sur 11 Sudeste 0 1012 0.6 62
2017-09-08 10:00:00 25.7 4 Sur 7 Sudoeste 0 1012.1 0.8 69
2017-09-08 09:00:00 23.5 3 Norte 8 Noroeste 0 1011.7 0.1 77
2017-09-08 08:00:00 22.3 0 Calma 5 Norte 0 1011.4 -0.4 79
2017-09-08 07:00:00 22.6 3 Norte 8 Nordeste 0 1011.3 -0.6 79
2017-09-08 06:00:00 23.2 2 Norte 6 Nordeste 0 1011.6 -0.7 79
2017-09-08 05:00:00 23.3 2 Norte 5 Noroeste 0 1011.8 -0.8 78
2017-09-08 04:00:00 23.6 0 Calma 8 Nordeste 0 1011.9 -0.7 74
2017-09-08 03:00:00 23.7 3 Norte 7 Nordeste 0 1012.3 -0.5 74
2017-09-08 02:00:00 23.8 2 Este 5 Norte 0 1012.6 -0.2 75
2017-09-08 01:00:00 23.9 3 Noroeste 5 Noroeste 0 1012.6 0 75
2017-09-08 00:00:00 24.3 4 Noroeste 7 Noroeste 0 1012.8 0.7 73
2017-09-07 23:00:00 24.7 3 Noroeste 6 Noroeste 0 1012.8 1.1 71
2017-09-07 22:00:00 25.2 4 Oeste 7 Sudoeste 0 1012.6 1.2 69
2017-09-07 21:00:00 25.7 4 Sur 8 Sudoeste 0 1012.1 0.4 66
2017-09-07 20:00:00 25.8 5 Sudeste 14 Sudeste 0 1011.7 -1 66
2017-09-07 19:00:00 26.6 6 Sur 17 Sudeste 0 1011.4 -1.6 63
2017-09-07 18:00:00 27 10 Sur 21 Sudeste 0 1011.7 -1.5 62
2017-09-07 17:00:00 27.3 13 Sudeste 24 Este 0 1012.7 -1.2 61
2017-09-07 16:00:00 28 15 Sudeste 28 Este 0 1013 0.3 62
2017-09-07 15:00:00 27.9 14 Sudeste 23 Este 0 1013.2 -0.6 61
2017-09-07 14:00:00 27.5 11 Sur 22 Sur 0 1013.9 0.7 59
2017-09-07 13:00:00 27.6 9 Sur 21 Sudeste 0 1012.7 -1.4 57
2017-09-07 12:00:00 27.8 10 Sur 19 Sur 0 1013.8 0.1 52
2017-09-07 11:00:00 28.2 12 Sudeste 23 Este 0 1013.2 -0.2 50
2017-09-07 10:00:00 26.6 7 Nordeste 18 Este 0 1014.1 1.1 58
2017-09-07 09:00:00 23.7 2 Oeste 11 Noroeste 0 1013.7 0.8 69
2017-09-07 08:00:00 22.4 4 Nordeste 8 Nordeste 0 1013.4 0 69
2017-09-07 07:00:00 21.7 0 Calma 5 Norte 0 1013 -0.6 72
2017-09-07 06:00:00 22 2 Norte 8 Noroeste 0 1012.9 -1.4 72
2017-09-07 05:00:00 22.4 0 Calma 8 Norte 0 1013.4 -1.5 69
2017-09-07 04:00:00 22.4 4 Noroeste 6 Noroeste 0 1013.6 -1.6 71
2017-09-07 03:00:00 22.5 3 Nordeste 5 Nordeste 0 1014.3 -1.1 73
2017-09-07 02:00:00 23.8 0 Calma 9 Noroeste 0 1014.9 -0.4 77
2017-09-07 01:00:00 24.2 4 Norte 8 Norte 0 1015.2 0.1 76
2017-09-07 00:00:00 24.6 3 Nordeste 8 Nordeste 0 1015.4 0.8 76
2017-09-06 23:00:00 24.7 5 Nordeste 9 Este 0 1015.3 0.7 76
2017-09-06 22:00:00 24.9 5 Este 12 Este 0 1015.1 0.5 74
2017-09-06 21:00:00 25.2 6 Este 15 Este 0 1014.6 -0.2 74
2017-09-06 20:00:00 25.7 9 Este 22 Este 0 1014.6 0.5 70
2017-09-06 19:00:00 26.9 12 Sudeste 22 Sudeste 0 1014.6 -0.9 63
2017-09-06 18:00:00 27.5 14 Sudeste 23 Sudeste 0 1014.8 -1 61
2017-09-06 17:00:00 27.7 13 Sudeste 22 Este 0 1014.1 -2.4 58
2017-09-06 16:00:00 28 12 Sudeste 22 Sudeste 0 1015.5 -1.5 64
2017-09-06 15:00:00 28.1 10 Sur 22 Sur 0 1015.8 -1.3 61
2017-09-06 14:00:00 27.7 12 Sur 21 Sur 0 1016.5 -0.5 57
2017-09-06 13:00:00 28.1 12 Sudeste 18 Sudeste 0 1017 0.4 45
2017-09-06 12:00:00 28.3 7 Sur 14 Sur 0 1017.1 0.4 46
2017-09-06 11:00:00 27.8 5 Sur 8 Sur 0 1017 0.7 49
2017-09-06 10:00:00 26.8 4 Sur 8 Noroeste 0 1016.6 0.5 50
2017-09-06 09:00:00 24 0 Calma 10 Noroeste 0 1016.7 0.7 51
2017-09-06 08:00:00 21.7 3 Norte 7 Norte 0 1016.3 0.1 54
2017-09-06 07:00:00 22 2 Nordeste 8 Nordeste 0 1016.1 -0.6 59
2017-09-06 06:00:00 21.5 0 Calma 6 Norte 0 1016 -1.4 69
2017-09-06 05:00:00 20.9 4 Noroeste 9 Noroeste 0 1016.2 -1.4 73
2017-09-06 04:00:00 22.9 0 Calma 8 Norte 0 1016.7 -1.3 74
2017-09-06 03:00:00 23 3 Norte 6 Nordeste 0 1017.4 -0.6 73
2017-09-06 02:00:00 23.6 2 Nordeste 6 Este 0 1017.6 -0.5 77
2017-09-06 01:00:00 24 0 Calma 6 Noroeste 0 1018 0.3 77
2017-09-06 00:00:00 24.5 2 Norte 5 Norte 0 1018 0.9 76
2017-09-05 23:00:00 24.9 3 Este 6 Este 0 1018.1 1.3 75
2017-09-05 22:00:00 25.1 3 Sudeste 6 Sudeste 0 1017.7 0.8 73
2017-09-05 21:00:00 25.3 4 Sudeste 11 Sudeste 0 1017.1 0.9 71
2017-09-05 20:00:00 26.3 6 Sudeste 16 Sudeste 0 1016.8 0.2 67
2017-09-05 19:00:00 27.3 8 Sudeste 22 Este 0 1016.9 -0.1 61
2017-09-05 18:00:00 28 13 Sudeste 23 Sudeste 0 1016.2 -1.2 55
2017-09-05 17:00:00 28.9 15 Sudeste 23 Sudeste 0 1016.6 -1 46
2017-09-05 16:00:00 28.2 15 Sudeste 27 Sudeste 0 1017 -0.9 58
2017-09-05 15:00:00 28.8 14 Sur 24 Sudeste 0 1017.4 -0.8 55
2017-09-05 14:00:00 30.1 11 Sur 22 Sur 0 1017.6 -0.3 37
2017-09-05 13:00:00 30.5 10 Sudeste 22 Sudeste 0 1017.9 1.1 37
2017-09-05 12:00:00 30.6 8 Este 22 Sur 0 1018.2 0.8 35
2017-09-05 11:00:00 28.9 3 Oeste 13 Oeste 0 1017.9 1 51
2017-09-05 10:00:00 27.7 6 Este 17 Nordeste 0 1016.8 0.6 56
2017-09-05 09:00:00 25.2 0 Calma 7 Nordeste 0 1017.4 1.6 66
2017-09-05 08:00:00 22.7 3 Norte 6 Noroeste 0 1016.9 1.4 75
2017-09-05 07:00:00 22.7 0 Calma 5 Nordeste 0 1016.2 0.8 76
2017-09-05 06:00:00 22.8 5 Noroeste 8 Noroeste 0 1015.8 0.3 75
2017-09-05 05:00:00 23.3 3 Nordeste 8 Nordeste 0 1015.5 0 74
2017-09-05 04:00:00 24 4 Nordeste 6 Nordeste 0 1015.4 0.1 73
2017-09-05 03:00:00 24.1 0 Calma 12 Este 0 1015.5 0.5 74
2017-09-05 02:00:00 24.6 8 Nordeste 16 Este 0 1015.5 1.3 72
2017-09-05 01:00:00 24.8 6 Este 20 Este 0 1015.3 2.2 72
2017-09-05 00:00:00 25.3 13 Este 29 Este 0 1015 3 72
2017-09-04 23:00:00 25.6 17 Este 33 Este 0 1014.2 3.9 74
2017-09-04 22:00:00 25.7 12 Este 21 Este 0 1013.1 2.9 77
2017-09-04 21:00:00 26.1 8 Sudeste 15 Sudeste 0 1012 2.1 73
2017-09-04 20:00:00 27 5 Sudeste 13 Sudeste 0 1010.3 0.8 70
2017-09-04 19:00:00 27.6 6 Sur 17 Sudeste 0 1010.2 0.5 68
2017-09-04 18:00:00 28.3 10 Sudeste 18 Sudeste 0 1009.9 0.3 64
2017-09-04 17:00:00 28.9 6 Sur 16 Sudeste 0 1009.5 0.1 59
2017-09-04 16:00:00 28.4 8 Sudeste 17 Sur 0 1009.7 -0.3 59
2017-09-04 15:00:00 28.3 8 Sur 17 Sudeste 0 1009.6 -0.4 61
2017-09-04 14:00:00 28 10 Sudeste 19 Sur 0 1009.4 -0.6 63
2017-09-04 13:00:00 27.8 10 Sur 21 Sudeste 0 1010 1.2 62
2017-09-04 12:00:00 28 7 Sur 13 Sur 0 1010 0.9 60
2017-09-04 11:00:00 27.2 4 Sur 10 Sudoeste 0 1010 1.2 64
2017-09-04 10:00:00 26.4 4 Sur 8 Sur 0 1008.8 0.2 66
2017-09-04 09:00:00 24.2 3 Norte 6 Norte 0 1009.1 0.7 71
2017-09-04 08:00:00 22.1 2 Norte 8 Noroeste 0 1008.8 0.4 78
2017-09-04 07:00:00 22.4 4 Norte 6 Nordeste 0 1008.6 -0.1 78
2017-09-04 06:00:00 22.4 2 Norte 6 Noroeste 0 1008.4 -0.5 76
2017-09-04 05:00:00 22.9 0 Calma 7 Nordeste 0 1008.4 -1 73
2017-09-04 04:00:00 22.9 2 Este 8 Nordeste 0 1008.7 -1.2 75
2017-09-04 03:00:00 22.8 3 Nordeste 8 Norte 0 1008.9 -1.4 73
2017-09-04 02:00:00 23.4 3 Norte 8 Norte 0 1009.4 -1.3 72
2017-09-04 01:00:00 23.5 4 Noroeste 8 Noroeste 0 1009.9 -0.5 74
2017-09-04 00:00:00 24 5 Noroeste 10 Oeste 0 1010.3 0.2 71
2017-09-03 23:00:00 24.4 5 Oeste 9 Oeste 0 1010.7 0.6 69
2017-09-03 22:00:00 24.8 5 Sudoeste 10 Oeste 0 1010.4 0.1 69
2017-09-03 21:00:00 25.1 6 Oeste 9 Oeste 0 1010.1 -0.3 67
2017-09-03 20:00:00 25.5 3 Sur 11 Sur 0 1010.1 0.3 65
2017-09-03 19:00:00 25.9 5 Sur 15 Sur 0 1010.3 -0.5 62
2017-09-03 18:00:00 26.6 5 Sur 18 Sudoeste 0 1010.4 -0.7 62
2017-09-03 17:00:00 26.7 7 Sudoeste 19 Sur 0 1009.8 -3.5 60
2017-09-03 16:00:00 27.3 9 Sur 22 Sur 0 1010.8 -2.3 59
2017-09-03 15:00:00 27.3 9 Sur 18 Sudoeste 0 1011.1 -2.7 58
2017-09-03 14:00:00 26.8 9 Sur 21 Sur 0 1013.3 -0.7 59
2017-09-03 13:00:00 27 11 Sudeste 21 Sudeste 0 1013.1 -0.8 60
2017-09-03 12:00:00 27.4 4 Sur 16 Sudeste 0 1013.8 -0.5 58
2017-09-03 11:00:00 26.2 6 Sur 15 Sudeste 0 1014 -0.4 62
2017-09-03 10:00:00 25.6 3 Sudoeste 9 Oeste 0 1013.9 -0.3 64
2017-09-03 09:00:00 23.8 3 Norte 8 Oeste 0 1014.3 0 73
2017-09-03 08:00:00 22.2 0 Calma 4 Norte 0 1014.4 -0.2 77
2017-09-03 07:00:00 22.5 5 Nordeste 8 Nordeste 0 1014.2 -1.1 75
2017-09-03 06:00:00 23.1 2 Norte 5 Norte 0 1014.3 -1.2 74
2017-09-03 05:00:00 23.4 0 Calma 5 Norte 0 1014.6 -1.4 73
2017-09-03 04:00:00 22.9 2 Norte 7 Norte 0 1015.3 -0.9 75
2017-09-03 03:00:00 22.9 2 Norte 6 Nordeste 0 1015.5 -1.2 74
2017-09-03 02:00:00 23.4 3 Norte 9 Nordeste 0 1016 -0.7 72
2017-09-03 01:00:00 24.2 4 Nordeste 9 Nordeste 0 1016.2 -0.4 68
2017-09-03 00:00:00 24.4 4 Norte 9 Norte 0 1016.7 0.7 68
2017-09-02 23:00:00 24.3 3 Nordeste 7 Este 0 1016.7 1 68
2017-09-02 22:00:00 24.3 4 Sudeste 9 Este 0 1016.6 0.9 68
2017-09-02 21:00:00 24.5 6 Sudeste 16 Sudeste 0 1016 0.1 67
2017-09-02 20:00:00 24.9 9 Sudeste 20 Sudeste 0 1015.7 -0.1 64
2017-09-02 19:00:00 25.9 11 Sudeste 26 Este 0 1015.7 -0.5 61
2017-09-02 18:00:00 26.5 14 Sudeste 26 Sudeste 0 1015.9 -0.7 59
2017-09-02 17:00:00 26.9 19 Sudeste 30 Sudeste 0 1015.8 -1.3 58
2017-09-02 16:00:00 27.4 21 Sudeste 33 Sudeste 0 1016.2 -1.2 55
2017-09-02 15:00:00 27.6 21 Sudeste 37 Sudeste 0 1016.6 -1 54
2017-09-02 14:00:00 28.1 18 Sudeste 32 Este 0 1017.1 -0.4 51
2017-09-02 13:00:00 28 20 Sudeste 32 Este 0 1017.4 0.7 49
2017-09-02 12:00:00 26.9 18 Este 36 Este 0 1017.6 1.4 55
2017-09-02 11:00:00 25.4 20 Este 32 Este 0 1017.5 1.7 62
2017-09-02 10:00:00 26.3 12 Este 24 Este 0 1016.7 1.4 61
2017-09-02 09:00:00 24.7 7 Este 15 Nordeste 0 1016.2 1.3 68
2017-09-02 08:00:00 24.6 5 Este 11 Nordeste 0 1015.8 0.9 68
2017-09-02 07:00:00 24.4 4 Nordeste 8 Este 0 1015.3 0.4 69
2017-09-02 06:00:00 24.3 3 Nordeste 9 Este 0 1014.9 0.1 68
2017-09-02 05:00:00 24.1 4 Nordeste 10 Nordeste 0 1014.9 0 69
2017-09-02 04:00:00 23.9 0 Calma 11 Este 0 1014.9 0.2 70
2017-09-02 03:00:00 23.9 6 Este 14 Este 0 1014.8 0.3 72
2017-09-02 02:00:00 24.3 4 Nordeste 9 Este 0 1014.9 0.6 72
2017-09-02 01:00:00 24.2 6 Este 15 Este 0 1014.7 1 72
2017-09-02 00:00:00 24.8 5 Este 15 Este 0 1014.5 1.4 70
2017-09-01 23:00:00 25.1 7 Este 19 Este 0 1014.3 1.7 75
2017-09-01 22:00:00 25.3 7 Este 24 Sudeste 0 1013.7 1.4 74
2017-09-01 21:00:00 25.4 13 Este 28 Sudeste 0 1013.1 0.4 73
2017-09-01 20:00:00 26.1 15 Este 31 Sudeste 0 1012.6 1 69
2017-09-01 19:00:00 27.3 18 Este 40 Este 0 1012.3 0.5 61
2017-09-01 18:00:00 27.9 19 Este 38 Sudeste 0 1012.7 0.3 59
2017-09-01 17:00:00 28.4 24 Sudeste 38 Sudeste 0 1011.6 -1.3 61
2017-09-01 16:00:00 29.4 22 Sudeste 39 Sudeste 0 1011.8 -1.8 54
2017-09-01 15:00:00 29.8 20 Sudeste 39 Sudeste 0 1012.4 -1.1 52
2017-09-01 14:00:00 29.6 20 Sudeste 38 Sudeste 0 1012.9 -0.2 50
2017-09-01 13:00:00 29.4 21 Sudeste 32 Sudeste 0 1013.6 0.6 48
2017-09-01 12:00:00 29.2 20 Sudeste 33 Este 0 1013.5 0.8 49
2017-09-01 11:00:00 28.9 15 Este 30 Este 0 1013.1 0.9 47
2017-09-01 10:00:00 27.7 13 Este 29 Este 0 1013 1 51
2017-09-01 09:00:00 24.1 3 Noroeste 6 Noroeste 0 1012.7 0.8 65
2017-09-01 08:00:00 22.4 2 Oeste 8 Noroeste 0 1012.2 0.2 72
2017-09-01 07:00:00 22.7 2 Oeste 10 Noroeste 0 1012 -0.3 71
2017-09-01 06:00:00 23 5 Noroeste 8 Noroeste 0 1011.9 -0.6 70
2017-09-01 05:00:00 24 4 Noroeste 20 Nordeste 0 1012 -0.9 66
2017-09-01 04:00:00 24.2 6 Nordeste 17 Nordeste 0 1012.3 -0.9 67
2017-09-01 03:00:00 24.6 5 Nordeste 15 Nordeste 0 1012.5 -0.6 66
2017-09-01 02:00:00 24.6 7 Nordeste 15 Nordeste 0 1012.9 0 64
2017-09-01 01:00:00 24.7 8 Nordeste 15 Nordeste 0 1013.2 0.4 66
2017-09-01 00:00:00 24.1 4 Norte 8 Nordeste 0 1013.1 1.2 64
2017-08-31 23:00:00 24.8 5 Norte 14 Este 0 1012.9 1.9 67
2017-08-31 22:00:00 25.3 10 Este 20 Este 0 1012.8 3.1 66
2017-08-31 21:00:00 25.6 9 Este 28 Este 0 1011.9 1 69
2017-08-31 20:00:00 26.4 17 Este 27 Este 0 1011 -0.2 67
2017-08-31 19:00:00 28 14 Este 27 Este 0 1009.7 -1.6 53
2017-08-31 18:00:00 27.8 13 Sudeste 21 Sudeste 0 1010.9 -0.7 56
2017-08-31 17:00:00 28.1 10 Sudeste 21 Sudeste 0 1011.2 -0.7 58
2017-08-31 16:00:00 28.3 11 Sudeste 19 Sudeste 0 1011.3 -1 53
2017-08-31 15:00:00 27.9 9 Sudeste 18 Sudeste 0 1011.6 -0.6 51
2017-08-31 14:00:00 27.9 10 Sur 18 Sudeste 0 1011.9 -0.5 53
2017-08-31 13:00:00 27.9 9 Sudeste 15 Sudeste 0 1012.3 0.4 47
2017-08-31 12:00:00 27.5 5 Sur 10 Sudeste 0 1012.2 0.3 49
2017-08-31 11:00:00 27 5 Sur 8 Sur 0 1012.4 0.8 49
2017-08-31 10:00:00 25.1 5 Nordeste 11 Nordeste 0 1011.9 1.1 65
2017-08-31 09:00:00 22.8 4 Este 8 Nordeste 0 1011.9 1.3 74
2017-08-31 08:00:00 21.6 6 Norte 8 Norte 0 1011.6 0.8 76
2017-08-31 07:00:00 21.6 3 Nordeste 8 Norte 0 1010.8 -0.5 75
2017-08-31 06:00:00 21.6 2 Sur 10 Nordeste 0 1010.6 -0.5 76
2017-08-31 05:00:00 21 6 Norte 9 Norte 0 1010.8 -0.9 81
2017-08-31 04:00:00 21 3 Sur 9 Norte 0 1011.3 -0.6 82
2017-08-31 03:00:00 20.9 0 Calma 8 Nordeste 0 1011.1 -0.4 83
2017-08-31 02:00:00 21 5 Norte 12 Noroeste 0 1011.7 -0.1 84
2017-08-31 01:00:00 21.3 3 Nordeste 6 Norte 0 1011.9 0.4 83
2017-08-31 00:00:00 21.5 3 Este 10 Norte 0 1011.5 0.7 82
2017-08-30 23:00:00 21.7 4 Norte 10 Nordeste 0 1011.8 1.1 81
2017-08-30 22:00:00 22.1 3 Nordeste 6 Norte 0 1011.5 0.5 79
2017-08-30 21:00:00 22.4 6 Este 10 Sudeste 0 1010.8 -0.1 76
2017-08-30 20:00:00 22.9 2 Sudeste 16 Sudoeste 0 1010.7 -0.2 74
2017-08-30 19:00:00 23.6 7 Sudoeste 25 Sudoeste 0 1011 -0.2 70
2017-08-30 18:00:00 23.7 8 Sur 18 Oeste 0 1010.9 -3.5 71
2017-08-30 17:00:00 23.2 11 Oeste 23 Oeste 0 1010.9 -2.8 73
2017-08-30 16:00:00 21.4 3 Sur 20 Oeste 0.6 1011.2 -3.5 84
2017-08-30 15:00:00 20 9 Oeste 15 Oeste 3.2 1014.4 -0.6 85
2017-08-30 14:00:00 20 8 Norte 14 Norte 3 1013.7 0.4 85
2017-08-30 13:00:00 19.8 4 Norte 13 Norte 3.8 1014.7 0.9 84
2017-08-30 12:00:00 19.9 4 Oeste 27 Sudoeste 1.4 1015 2.4 84
2017-08-30 11:00:00 20.3 3 Oeste 13 Norte 2.4 1013.3 1.2 85
2017-08-30 10:00:00 20 5 Sur 13 Sudeste 2.8 1013.8 1.8 84
2017-08-30 09:00:00 20.2 4 Sur 9 Sudoeste 0 1012.6 0.5 85
2017-08-30 08:00:00 20 5 Sur 14 Noroeste 0 1012.1 0.9 85
2017-08-30 07:00:00 19.7 5 Norte 12 Nordeste 0 1012 0.2 85
2017-08-30 06:00:00 19.7 5 Nordeste 17 Nordeste 0 1012.1 -0.3 84
2017-08-30 05:00:00 19.7 6 Nordeste 12 Nordeste 0 1011.2 -1 85
2017-08-30 04:00:00 20.4 5 Sudeste 12 Oeste 0 1011.8 -1.1 86
2017-08-30 03:00:00 20.5 3 Sudoeste 9 Este 0.2 1012.4 -0.7 86
2017-08-30 02:00:00 20.5 2 Este 19 Este 0 1012.2 -1 85
2017-08-30 01:00:00 20.4 3 Sudeste 13 Noroeste 0 1012.9 0.7 84
2017-08-30 00:00:00 20.3 5 Noroeste 18 Este 0 1013.1 0.7 84
2017-08-29 23:00:00 20.4 4 Norte 14 Noroeste 0 1013.2 3.2 82
2017-08-29 22:00:00 20.5 6 Norte 21 Este 0 1012.2 1.6 80
2017-08-29 21:00:00 21.4 7 Norte 20 Noroeste 0.2 1012.4 2.3 77
2017-08-29 20:00:00 23.5 6 Nordeste 12 Este 0 1010 -0.8 75
2017-08-29 19:00:00 25.2 4 Sur 19 Este 0 1010.6 0.3 65
2017-08-29 18:00:00 26.2 8 Sudeste 20 Sudeste 0 1010.1 -0.7 63
2017-08-29 17:00:00 26.8 11 Sudeste 20 Sudeste 0 1010.8 -0.8 53
2017-08-29 16:00:00 26.7 3 Sur 12 Oeste 0 1010.3 -1.2 48
2017-08-29 15:00:00 25.7 5 Oeste 18 Noroeste 0.2 1010.8 -0.7 54
2017-08-29 14:00:00 23.8 13 Oeste 23 Oeste 0 1011.6 1 68
2017-08-29 13:00:00 24.2 3 Sudoeste 16 Oeste 0 1011.5 0.7 76
2017-08-29 12:00:00 24.3 6 Sudoeste 19 Sudoeste 0 1011.5 1.4 73
2017-08-29 11:00:00 23.8 5 Sudoeste 12 Sudeste 0 1010.6 1 80
2017-08-29 10:00:00 23.9 4 Noroeste 10 Sudeste 0 1010.8 1.3 78
2017-08-29 09:00:00 24.1 2 Sudoeste 12 Este 0 1010.1 0.8 71
2017-08-29 08:00:00 23.8 3 Nordeste 9 Nordeste 0 1009.6 -0.1 63
2017-08-29 07:00:00 23.6 0 Calma 10 Noroeste 0 1009.5 -0.2 61
2017-08-29 06:00:00 24 4 Sudoeste 14 Nordeste 0 1009.3 -0.4 60
2017-08-29 05:00:00 23.5 6 Noroeste 12 Noroeste 0 1009.7 -0.2 61
2017-08-29 04:00:00 24 5 Noroeste 11 Nordeste 0 1009.7 0.5 62
2017-08-29 03:00:00 23.9 2 Este 6 Nordeste 0 1009.7 -0.1 59
2017-08-29 02:00:00 23.6 3 Nordeste 5 Nordeste 0 1009.9 -0.4 56
2017-08-29 01:00:00 24.3 0 Calma 12 Nordeste 0 1009.2 -1.1 53
2017-08-29 00:00:00 24.7 3 Norte 10 Nordeste 0 1009.8 -0.2 54
2017-08-28 23:00:00 25.2 5 Norte 10 Nordeste 0 1010.3 -0.1 60
2017-08-28 22:00:00 25.4 5 Norte 11 Norte 0 1010.3 -0.1 64
2017-08-28 21:00:00 26.2 4 Sudeste 14 Sur 0 1010 -1.1 62
2017-08-28 20:00:00 26.9 7 Sur 11 Sur 0 1010.4 0.6 63
2017-08-28 19:00:00 26.9 5 Sur 18 Sudeste 0 1010.4 -0.3 71
2017-08-28 18:00:00 27.1 6 Sur 26 Sudeste 0 1011.1 -0.5 67
2017-08-28 17:00:00 28.4 11 Sudeste 19 Sudeste 0 1009.8 -2 58
2017-08-28 16:00:00 27.7 7 Sudeste 24 Sudeste 0 1010.7 -1.7 63
2017-08-28 15:00:00 27.7 12 Sudeste 21 Sur 0 1011.6 -1.6 60
2017-08-28 14:00:00 27 4 Noroeste 23 Sudoeste 0 1011.8 -1.3 63
2017-08-28 13:00:00 27 6 Sudoeste 16 Sudoeste 0 1012.4 0.7 70
2017-08-28 12:00:00 27 10 Sur 19 Sur 0 1013.2 3.2 72
2017-08-28 11:00:00 27.4 9 Sudoeste 32 Oeste 0 1013.1 4 66
2017-08-28 10:00:00 27 10 Oeste 17 Oeste 0 1011.7 2.4 65
2017-08-28 09:00:00 26.2 5 Noroeste 8 Noroeste 0 1010 -0.4 65
2017-08-28 08:00:00 25.6 4 Sur 11 Oeste 0 1009.1 -2.1 63
2017-08-28 07:00:00 25.2 6 Este 13 Nordeste 0 1009.3 -2.1 60
2017-08-28 06:00:00 25.6 6 Nordeste 12 Nordeste 0 1010.4 -1.3 60
2017-08-28 05:00:00 25.7 2 Sudoeste 10 Nordeste 0 1011.2 -0.7 61
2017-08-28 04:00:00 25.2 4 Nordeste 12 Noroeste 0 1011.4 -1.4 75
2017-08-28 03:00:00 25.7 4 Norte 7 Noroeste 0 1011.7 -1 76
2017-08-28 02:00:00 26 3 Norte 6 Norte 0 1011.9 -0.5 77
2017-08-28 01:00:00 26.3 3 Sudeste 13 Sudeste 0 1012.8 1.5 77
2017-08-28 00:00:00 26.5 9 Sudeste 17 Sudeste 0 1012.7 2.4 76
2017-08-27 23:00:00 26.8 10 Sudeste 16 Sudeste 0 1012.4 2.1 75
2017-08-27 22:00:00 26.9 5 Sudeste 14 Este 0 1011.3 0.8 74
2017-08-27 21:00:00 27.2 9 Este 22 Este 0 1010.3 0.5 72
2017-08-27 20:00:00 27.7 8 Sudeste 14 Sudeste 0 1010.3 0.2 71
2017-08-27 19:00:00 28.1 8 Sudeste 23 Sudeste 0 1010.5 0.1 70
2017-08-27 18:00:00 29.6 8 Sur 17 Sur 0 1009.8 -1.2 61
2017-08-27 17:00:00 29.4 7 Sur 20 Sudeste 0 1010.1 -1.2 61
2017-08-27 16:00:00 29.4 10 Sudeste 18 Sudeste 0 1010.4 -1.2 63
2017-08-27 15:00:00 29.3 8 Sudeste 17 Sudeste 0 1011 -1 61
2017-08-27 14:00:00 28.7 9 Sur 21 Sudeste 0 1011.3 -0.6 61
2017-08-27 13:00:00 29 11 Sudeste 24 Sudeste 0 1011.6 -0.5 60
2017-08-27 12:00:00 29 14 Sudeste 24 Sudeste 0 1012 0.6 60
2017-08-27 11:00:00 28.8 8 Nordeste 15 Nordeste 0 1011.9 1.2 50
2017-08-27 10:00:00 27.7 5 Sur 9 Sur 0 1012.1 2.3 59
2017-08-27 09:00:00 26.7 4 Noroeste 10 Oeste 0 1011.4 1.5 60
2017-08-27 08:00:00 24.7 5 Noroeste 14 Norte 0 1010.7 0.5 63
2017-08-27 07:00:00 24.8 3 Sur 13 Norte 0 1009.8 -1.5 63
2017-08-27 06:00:00 25.1 3 Noroeste 10 Nordeste 0 1009.9 -2.4 72
2017-08-27 05:00:00 25.9 4 Nordeste 18 Noroeste 0 1010.2 -2.3 69
2017-08-27 04:00:00 25.6 7 Noroeste 16 Norte 0 1011.3 -0.7 74
2017-08-27 03:00:00 25.9 5 Este 17 Este 0 1012.3 -0.3 71
2017-08-27 02:00:00 26.3 7 Oeste 12 Oeste 0 1012.5 0.8 78
2017-08-27 01:00:00 26.6 8 Este 12 Este 0 1012 1.1 77
2017-08-27 00:00:00 26.7 7 Oeste 13 Oeste 0 1012.6 2.5 75
2017-08-26 23:00:00 26.8 4 Sudoeste 9 Noroeste 0 1011.7 2.4 75
2017-08-26 22:00:00 26.7 6 Noroeste 13 Oeste 0 1010.9 1.1 75
2017-08-26 21:00:00 27.3 4 Sudeste 13 Sudeste 0 1010.1 0.4 72
2017-08-26 20:00:00 28 8 Este 21 Sudeste 0 1009.3 -0.8 68
2017-08-26 19:00:00 28.5 10 Sudeste 26 Sudeste 0 1009.8 -0.8 67
2017-08-26 18:00:00 29.3 14 Sudeste 28 Sudeste 0 1009.7 -1.3 62
2017-08-26 17:00:00 29.1 17 Sudeste 30 Sudeste 0 1010.1 -1.2 61
2017-08-26 16:00:00 30 15 Sudeste 31 Sudeste 0 1010.6 -1.2 58
2017-08-26 15:00:00 29.6 14 Sudeste 32 Sudeste 0 1011 -1.1 59
2017-08-26 14:00:00 28.7 18 Sudeste 31 Sudeste 0 1011.3 -0.5 63
2017-08-26 13:00:00 28.4 13 Sudeste 25 Sudeste 0 1011.8 0.1 64
2017-08-26 12:00:00 28.5 12 Sudeste 22 Sudeste 0 1012.1 0.6 59
2017-08-26 11:00:00 28.5 8 Sudeste 17 Sur 0 1011.8 0.2 57
2017-08-26 10:00:00 27.5 3 Sudoeste 8 Oeste 0 1011.7 0.5 65
2017-08-26 09:00:00 25.6 3 Norte 10 Nordeste 0 1011.5 0.1 72
2017-08-26 08:00:00 23.2 5 Norte 9 Norte 0 1011.6 -0.5 73
2017-08-26 07:00:00 24 4 Nordeste 7 Nordeste 0 1011.2 -1.1 75
2017-08-26 06:00:00 24.2 4 Nordeste 7 Nordeste 0 1011.4 -1.5 76
2017-08-26 05:00:00 24.6 3 Noroeste 8 Noroeste 0 1012.1 -0.9 76
2017-08-26 04:00:00 25 4 Nordeste 6 Norte 0 1012.3 -0.6 76
2017-08-26 03:00:00 25.3 2 Norte 6 Nordeste 0 1012.9 0 76
2017-08-26 02:00:00 25.5 3 Norte 8 Nordeste 0 1013 0.2 75
2017-08-26 01:00:00 25.5 6 Nordeste 9 Este 0 1012.9 0.8 76
2017-08-26 00:00:00 25.7 4 Nordeste 7 Nordeste 0 1012.9 0.9 76
2017-08-25 23:00:00 25.8 2 Nordeste 10 Sudeste 0 1012.8 1.4 75
2017-08-25 22:00:00 26 10 Este 20 Este 0 1012.1 -0.5 73
2017-08-25 21:00:00 26.2 2 Este 14 Este 0 1012 0.4 70
2017-08-25 20:00:00 26.6 8 Sudeste 18 Sudeste 0 1011.4 -0.4 69
2017-08-25 19:00:00 27.1 6 Sur 16 Sudeste 0 1012.6 0 67
2017-08-25 18:00:00 27.9 8 Sur 18 Sudeste 0 1011.6 -1.1 62
2017-08-25 17:00:00 28.4 9 Sur 18 Sur 0 1011.8 -1.5 60
2017-08-25 16:00:00 28.8 8 Sur 21 Sudeste 0 1012.6 -1.2 58
2017-08-25 15:00:00 28.3 13 Sur 21 Sudeste 0 1012.7 -1.3 63
2017-08-25 14:00:00 28.7 8 Sur 21 Sur 0 1013.3 -1 61
2017-08-25 13:00:00 28.2 8 Sur 19 Sur 0 1013.8 0.7 63
2017-08-25 12:00:00 27.6 9 Sur 17 Sudeste 0 1014 1.3 66
2017-08-25 11:00:00 26.4 5 Sur 16 Sudoeste 0 1014.3 2.5 71
2017-08-25 10:00:00 27.4 4 Sur 12 Sur 0 1013.1 1.6 64
2017-08-25 09:00:00 25.4 4 Oeste 9 Oeste 0 1012.7 1.2 67
2017-08-25 08:00:00 23.3 2 Norte 12 Norte 0 1011.8 -0.8 74
2017-08-25 07:00:00 23.5 3 Este 11 Este 0 1011.5 -1.7 77
2017-08-25 06:00:00 24 3 Nordeste 10 Norte 0 1011.5 -2.2 76
2017-08-25 05:00:00 24.5 4 Norte 8 Norte 0 1012.6 -0.8 77
2017-08-25 04:00:00 24.9 4 Noroeste 9 Noroeste 0 1013.2 -0.5 76
2017-08-25 03:00:00 24.1 4 Noroeste 7 Noroeste 0 1013.7 0.3 75
2017-08-25 02:00:00 24.2 4 Norte 7 Norte 0 1013.4 0 75
2017-08-25 01:00:00 24.4 3 Norte 6 Norte 0 1013.7 1 74
2017-08-25 00:00:00 24.8 3 Norte 7 Noroeste 0 1013.4 1.2 74
2017-08-24 23:00:00 25.3 4 Norte 6 Sudeste 0 1013.4 0.6 73
2017-08-24 22:00:00 25.5 3 Sudeste 6 Este 0 1012.7 0.9 73
2017-08-24 21:00:00 25.8 4 Este 11 Sudeste 0 1012.2 -0.1 71
2017-08-24 20:00:00 26.7 8 Sudeste 16 Sur 0 1012.8 0.2 67
2017-08-24 19:00:00 27.5 7 Sur 20 Sur 0 1011.8 -1.2 64
2017-08-24 18:00:00 27.6 10 Sur 23 Sur 0 1012.3 -1.2 64
2017-08-24 17:00:00 28.5 12 Sudeste 22 Sur 0 1012.6 -1.1 59
2017-08-24 16:00:00 28.4 12 Sudeste 26 Este 0 1013 -0.9 60
2017-08-24 15:00:00 28.6 14 Sudeste 31 Sudeste 0 1013.5 -0.7 62
2017-08-24 14:00:00 28.2 12 Sur 24 Sudeste 0 1013.7 -0.2 62
2017-08-24 13:00:00 28.2 13 Sudeste 23 Sudeste 0 1013.9 0.5 55
2017-08-24 12:00:00 28.1 12 Sudeste 23 Este 0 1014.2 1 52
2017-08-24 11:00:00 27.5 9 Sudeste 18 Sudeste 0 1013.9 1 61
2017-08-24 10:00:00 27.4 4 Sudoeste 12 Oeste 0 1013.4 0.9 60
2017-08-24 09:00:00 25.1 5 Noroeste 9 Noroeste 0 1013.2 1.1 68
2017-08-24 08:00:00 22.4 4 Norte 10 Nordeste 0 1012.9 1.1 74
2017-08-24 07:00:00 22.1 6 Norte 10 Nordeste 0 1012.5 0.3 74
2017-08-24 06:00:00 21.7 5 Norte 8 Noroeste 0 1012.1 -0.4 77
2017-08-24 05:00:00 22.2 3 Norte 6 Nordeste 0 1011.8 -1.3 77
2017-08-24 04:00:00 23.1 4 Norte 7 Norte 0 1012.2 -1 75
2017-08-24 03:00:00 23.8 2 Nordeste 5 Nordeste 0 1012.5 -0.8 74
2017-08-24 02:00:00 23.9 4 Norte 8 Norte 0 1013.1 0 74
2017-08-24 01:00:00 24.3 3 Norte 7 Noroeste 0 1013.2 0.4 72
2017-08-24 00:00:00 24.6 4 Norte 6 Este 0 1013.3 1.2 74
2017-08-23 23:00:00 25 3 Este 9 Este 0 1013.1 1.1 75
2017-08-23 22:00:00 25.4 5 Este 12 Sudeste 0 1012.8 0.1 73
2017-08-23 21:00:00 25.8 7 Sudeste 16 Sudeste 0 1012.1 0.3 71
2017-08-23 20:00:00 26.9 10 Sudeste 21 Sudeste 0 1012 -0.2 66
2017-08-23 19:00:00 27.3 13 Sudeste 23 Sudeste 0 1012.7 0 65
2017-08-23 18:00:00 28.1 11 Sur 25 Sudeste 0 1011.8 -1.3 63
2017-08-23 17:00:00 28.5 11 Sudeste 25 Sur 0 1012.2 -1.2 60
2017-08-23 16:00:00 28.5 11 Sudeste 22 Sur 0 1012.7 -1.3 59
2017-08-23 15:00:00 28.5 11 Sudeste 24 Sur 0 1013.1 -0.8 55
2017-08-23 14:00:00 28.4 12 Sudeste 26 Sudeste 0 1013.4 -0.3 57
2017-08-23 13:00:00 28.3 11 Sudeste 21 Sudeste 0 1014 0.9 57
2017-08-23 12:00:00 27.5 10 Sur 18 Sur 0 1013.9 0.8 59
2017-08-23 11:00:00 26.9 9 Sur 17 Sur 0 1013.7 1 59
2017-08-23 10:00:00 27.1 6 Sur 11 Sur 0 1013.1 0.8 53
2017-08-23 09:00:00 25.9 4 Este 9 Este 0 1013.1 1 63
2017-08-23 08:00:00 22 3 Nordeste 9 Sudeste 0 1012.7 0.8 57
2017-08-23 07:00:00 22.4 4 Norte 9 Nordeste 0 1012.3 0 61
2017-08-23 06:00:00 22.1 0 Calma 5 Norte 0 1012.1 -0.4 66
2017-08-23 05:00:00 22.6 0 Calma 8 Nordeste 0 1011.9 -0.8 70
2017-08-23 04:00:00 23.1 5 Nordeste 9 Nordeste 0 1012.3 -0.9 74
2017-08-23 03:00:00 22.8 0 Calma 4 Norte 0 1012.5 -0.6 74
2017-08-23 02:00:00 23.8 3 Norte 6 Norte 0 1012.7 -0.3 73
2017-08-23 01:00:00 24.2 3 Norte 7 Norte 0 1013.2 0.6 72
2017-08-23 00:00:00 24.8 3 Noroeste 5 Noroeste 0 1013.1 0.9 72
2017-08-22 23:00:00 25.2 3 Noroeste 6 Sudeste 0 1013 1 71
2017-08-22 22:00:00 25.2 3 Este 9 Sudeste 0 1012.6 0.8 71
2017-08-22 21:00:00 25.7 5 Sudeste 10 Sudeste 0 1012.2 -0.3 69
2017-08-22 20:00:00 26.5 6 Sur 15 Sur 0 1012 -0.9 64
2017-08-22 19:00:00 27.3 8 Sudeste 18 Sudeste 0 1011.8 -1.6 60
2017-08-22 18:00:00 27.5 9 Sur 22 Sudeste 0 1012.5 -1.7 62
2017-08-22 17:00:00 27.8 10 Sudeste 21 Sudeste 0 1012.9 -1.8 61
2017-08-22 16:00:00 27.9 10 Sudeste 24 Sudeste 0 1013.4 -1.9 60
2017-08-22 15:00:00 28.3 12 Sur 25 Sudeste 0 1014.2 -1.4 56
2017-08-22 14:00:00 28.1 12 Sur 25 Sur 0 1014.7 -0.7 53
2017-08-22 13:00:00 28.2 9 Sur 21 Sudeste 0 1015.3 0.3 47
2017-08-22 12:00:00 28.5 10 Sur 19 Sudeste 0 1015.6 0.7 39
2017-08-22 11:00:00 28.2 9 Sur 18 Sur 0 1015.4 0.9 38
2017-08-22 10:00:00 28.4 4 Sur 10 Noroeste 0 1015 0.5 35
2017-08-22 09:00:00 25.8 0 Calma 6 Noroeste 0 1014.9 0.5 36
2017-08-22 08:00:00 22.1 0 Calma 9 Norte 0 1014.5 0 43
2017-08-22 07:00:00 22.5 2 Noroeste 8 Nordeste 0 1014.5 -0.1 46
2017-08-22 06:00:00 23.2 6 Nordeste 9 Nordeste 0 1014.4 -0.2 62
2017-08-22 05:00:00 23.6 4 Nordeste 7 Nordeste 0 1014.5 -0.5 61
2017-08-22 04:00:00 23.4 2 Norte 8 Noroeste 0 1014.6 -0.4 66
2017-08-22 03:00:00 24.1 3 Nordeste 8 Este 0 1014.6 -0.6 65
2017-08-22 02:00:00 24.4 3 Noroeste 6 Noroeste 0 1015 -0.2 70
2017-08-22 01:00:00 24.9 3 Norte 10 Norte 0 1015 0.3 69
2017-08-22 00:00:00 25.4 2 Nordeste 9 Nordeste 0 1015.2 1.1 67